Time;durP1;ratioP1;P1;durP2;ratioP2;P2;SDS_P1;SDS_P2;PMS_P1;PMS_P2;Temp;Humidity;BMP_temperature;BMP_pressure;BME280_temperature;BME280_humidity;BME280_pressure;Samples;Min_cycle;Max_cycle;Signal;HPM_P1;HPM_P2
2022/09/20 00:01:12;;;;;;;9.88;2.95;;;27.10;99.90;;;;;;4962757;23;20063;-52
2022/09/20 00:03:43;;;;;;;10.40;3.90;;;27.10;99.90;;;;;;4954989;29;20119;-53
2022/09/20 00:06:13;;;;;;;14.50;4.30;;;27.10;99.90;;;;;;4955177;28;20055;-52
2022/09/20 00:08:39;;;;;;;10.43;3.45;;;27.10;99.90;;;;;;4954966;28;20384;-52
2022/09/20 00:11:14;;;;;;;14.90;4.50;;;27.10;99.90;;;;;;4955055;28;20031;-52
2022/09/20 00:13:42;;;;;;;13.75;3.80;;;27.10;99.90;;;;;;4955091;28;20077;-52
2022/09/20 00:16:11;;;;;;;10.85;4.00;;;27.10;99.90;;;;;;4954807;28;20290;-52
2022/09/20 00:18:37;;;;;;;9.13;4.15;;;27.00;99.90;;;;;;4954948;28;20031;-52
2022/09/20 00:21:04;;;;;;;11.13;3.03;;;27.00;99.90;;;;;;4954648;28;20618;-52
2022/09/20 00:23:31;;;;;;;18.23;3.08;;;27.00;99.90;;;;;;4954564;28;20039;-52
2022/09/20 00:25:58;;;;;;;9.13;2.77;;;27.00;99.90;;;;;;4954636;28;20480;-52
2022/09/20 00:28:25;;;;;;;9.20;2.83;;;27.00;99.90;;;;;;4954463;29;20805;-53
2022/09/20 00:30:52;;;;;;;11.43;4.32;;;27.00;99.90;;;;;;4954580;28;20023;-52
2022/09/20 00:33:17;;;;;;;9.18;2.35;;;27.00;99.90;;;;;;4954383;29;20035;-52
2022/09/20 00:35:44;;;;;;;8.65;2.85;;;27.00;99.90;;;;;;4954401;29;20027;-52
2022/09/20 00:38:12;;;;;;;9.47;3.20;;;27.00;99.90;;;;;;4954309;28;20106;-52
2022/09/20 00:40:39;;;;;;;7.93;3.70;;;26.90;99.90;;;;;;4953174;29;20019;-53
2022/09/20 00:43:04;;;;;;;11.93;2.90;;;26.90;99.90;;;;;;4954249;29;20399;-52
2022/09/20 00:45:30;;;;;;;7.10;3.17;;;26.90;99.90;;;;;;4954346;28;20023;-52
2022/09/20 00:47:58;;;;;;;10.88;2.85;;;26.90;99.90;;;;;;4954402;28;20514;-53
2022/09/20 00:50:41;;;;;;;6.47;2.90;;;26.90;99.90;;;;;;4954160;29;20049;-52
2022/09/20 00:53:25;;;;;;;9.15;4.35;;;26.90;99.90;;;;;;4954096;29;20035;-53
2022/09/20 00:56:00;;;;;;;8.15;2.80;;;26.80;99.90;;;;;;4953790;28;20086;-52
2022/09/20 00:58:28;;;;;;;11.75;3.30;;;26.80;99.90;;;;;;4953935;28;20067;-52
2022/09/20 01:00:56;;;;;;;11.43;3.10;;;26.80;99.90;;;;;;4952595;23;20060;-55
2022/09/20 01:03:25;;;;;;;7.65;2.95;;;26.80;99.90;;;;;;4934919;29;20048;-54
2022/09/20 01:05:53;;;;;;;9.00;3.35;;;26.70;99.90;;;;;;4934805;29;20071;-55
2022/09/20 01:08:23;;;;;;;9.75;2.90;;;26.70;99.90;;;;;;4934748;29;20038;-54
2022/09/20 01:10:49;;;;;;;11.20;3.38;;;26.70;99.90;;;;;;4934585;29;20110;-55
2022/09/20 01:13:15;;;;;;;9.38;3.10;;;26.70;99.90;;;;;;4934763;29;20078;-55
2022/09/20 01:15:43;;;;;;;8.25;2.65;;;26.60;99.90;;;;;;4934654;29;20047;-55
2022/09/20 01:18:09;;;;;;;8.73;2.65;;;26.60;99.90;;;;;;4934422;29;20046;-55
2022/09/20 01:20:41;;;;;;;6.43;2.73;;;26.60;99.90;;;;;;4934973;29;20020;-54
2022/09/20 01:23:28;;;;;;;9.07;3.33;;;26.60;99.90;;;;;;4934242;29;20079;-55
2022/09/20 01:26:31;;;;;;;8.20;3.55;;;26.60;99.90;;;;;;4934506;29;20020;-55
2022/09/20 01:29:15;;;;;;;8.95;2.83;;;26.60;99.90;;;;;;4934367;29;20092;-55
2022/09/20 01:31:52;;;;;;;9.82;3.00;;;26.60;99.90;;;;;;4934303;29;20024;-55
2022/09/20 01:34:28;;;;;;;6.95;2.05;;;26.50;99.90;;;;;;4934744;29;20108;-55
2022/09/20 01:37:16;;;;;;;5.38;2.50;;;26.50;99.90;;;;;;4934364;29;20051;-55
2022/09/20 01:39:48;;;;;;;10.23;3.45;;;26.50;99.90;;;;;;4934220;29;20445;-55
2022/09/20 01:42:14;;;;;;;9.15;3.30;;;26.50;99.90;;;;;;4934261;29;20075;-55
2022/09/20 01:45:00;;;;;;;7.30;2.55;;;26.50;99.90;;;;;;4934319;29;20511;-54
2022/09/20 01:47:50;;;;;;;11.35;3.35;;;26.40;99.90;;;;;;4934213;29;20464;-55
2022/09/20 01:50:25;;;;;;;4.97;2.75;;;26.40;99.90;;;;;;4934169;29;20036;-54
2022/09/20 01:53:16;;;;;;;6.82;2.40;;;26.40;99.90;;;;;;4934077;29;20051;-54
2022/09/20 01:55:57;;;;;;;7.82;3.03;;;26.30;99.90;;;;;;4933684;29;20027;-55
2022/09/20 01:59:07;;;;;;;11.52;2.58;;;26.30;99.90;;;;;;4933917;29;20034;-55
2022/09/20 02:01:33;;;;;;;9.60;2.72;;;26.30;99.90;;;;;;4919474;29;20079;-55
2022/09/20 02:03:59;;;;;;;7.15;3.05;;;26.30;99.90;;;;;;4934010;29;20492;-54
2022/09/20 02:06:28;;;;;;;7.13;2.30;;;26.20;99.90;;;;;;4934494;29;20024;-55
2022/09/20 02:09:24;;;;;;;7.85;2.42;;;26.20;99.90;;;;;;4937850;29;20028;-55
2022/09/20 02:12:31;;;;;;;7.80;2.53;;;26.20;99.90;;;;;;4936778;29;20392;-54
2022/09/20 02:15:03;;;;;;;7.93;2.78;;;26.10;99.90;;;;;;4937302;29;20055;-54
2022/09/20 02:17:58;;;;;;;8.18;3.03;;;26.10;99.90;;;;;;4937857;29;20031;-54
2022/09/20 02:20:59;;;;;;;12.52;2.88;;;26.10;99.90;;;;;;4937726;29;20028;-54
2022/09/20 02:23:54;;;;;;;9.88;2.70;;;26.10;99.90;;;;;;4905356;29;20043;-55
2022/09/20 02:27:01;;;;;;;9.73;3.10;;;26.10;99.90;;;;;;4937704;29;20503;-55
2022/09/20 02:29:44;;;;;;;7.65;2.78;;;26.10;99.90;;;;;;4937617;29;20091;-55
2022/09/20 02:32:18;;;;;;;8.35;2.95;;;26.10;99.90;;;;;;4937568;29;20019;-54
2022/09/20 02:35:28;;;;;;;10.20;3.20;;;26.10;99.90;;;;;;4937522;29;20091;-55
2022/09/20 02:38:06;;;;;;;8.63;2.28;;;26.10;99.90;;;;;;4905059;29;20118;-55
2022/09/20 02:41:05;;;;;;;8.88;2.83;;;26.10;99.90;;;;;;4937333;29;20062;-54
2022/09/20 02:43:43;;;;;;;6.85;2.45;;;26.10;99.90;;;;;;4935875;29;20046;-54
2022/09/20 02:46:08;;;;;;;;;;;26.10;99.90;;;;;;4937776;29;20051;-55
2022/09/20 02:48:54;;;;;;;8.38;2.88;;;26.10;99.90;;;;;;4937260;29;20009;-54
2022/09/20 02:51:29;;;;;;;7.93;3.30;;;26.10;99.90;;;;;;4937050;29;20451;-54
2022/09/20 02:54:37;;;;;;;10.85;2.70;;;26.10;99.90;;;;;;4936988;29;20520;-55
2022/09/20 02:57:20;;;;;;;10.50;2.80;;;26.10;99.90;;;;;;4937134;29;20416;-54
2022/09/20 03:00:04;;;;;;;6.80;2.63;;;26.00;99.90;;;;;;4948743;23;20047;-53
2022/09/20 03:02:35;;;;;;;6.07;3.15;;;26.00;99.90;;;;;;4936768;29;20051;-53
2022/09/20 03:05:26;;;;;;;5.38;2.53;;;26.00;99.90;;;;;;4936728;29;20035;-52
2022/09/20 03:08:18;;;;;;;3.60;2.17;;;26.00;99.90;;;;;;4937024;29;20475;-54
2022/09/20 03:11:02;;;;;;;11.82;2.58;;;25.90;99.90;;;;;;4936818;29;20124;-52
2022/09/20 03:13:55;;;;;;;11.93;2.63;;;25.90;99.90;;;;;;4936836;29;20024;-53
2022/09/20 03:16:31;;;;;;;6.53;2.60;;;25.90;99.90;;;;;;4935537;29;20318;-53
2022/09/20 03:19:33;;;;;;;14.07;3.35;;;25.90;99.90;;;;;;4936614;29;20020;-53
2022/09/20 03:22:19;;;;;;;5.70;2.42;;;25.80;99.90;;;;;;4929794;29;20388;-54
2022/09/20 03:25:21;;;;;;;5.70;2.33;;;25.70;99.90;;;;;;4936177;29;20040;-52
2022/09/20 03:28:24;;;;;;;8.23;2.28;;;25.70;99.90;;;;;;4936307;29;20039;-53
2022/09/20 03:31:16;;;;;;;6.13;2.03;;;25.70;99.90;;;;;;4936604;29;20035;-53
2022/09/20 03:33:42;;;;;;;7.90;2.45;;;25.70;99.90;;;;;;4928607;29;20063;-53
2022/09/20 03:36:40;;;;;;;7.25;2.38;;;25.70;99.90;;;;;;4936481;29;20082;-52
2022/09/20 03:39:26;;;;;;;4.63;1.98;;;25.80;99.90;;;;;;4913783;29;20044;-52
2022/09/20 03:42:07;;;;;;;8.10;2.80;;;25.70;99.90;;;;;;4936179;29;20136;-53
2022/09/20 03:45:04;;;;;;;9.98;2.50;;;25.70;99.90;;;;;;4936123;29;20062;-52
2022/09/20 03:47:39;;;;;;;;;;;25.70;99.90;;;;;;4936458;29;20543;-53
2022/09/20 03:50:30;;;;;;;6.78;2.20;;;25.80;99.90;;;;;;4936222;29;19929;-53
2022/09/20 03:53:13;;;;;;;6.50;2.30;;;25.80;99.90;;;;;;4936281;29;20034;-53
2022/09/20 03:56:05;;;;;;;4.75;2.20;;;25.70;99.90;;;;;;4934794;29;20055;-53
2022/09/20 03:58:49;;;;;;;8.20;2.30;;;25.70;99.90;;;;;;4935955;29;20396;-53
2022/09/20 04:01:39;;;;;;;8.52;1.88;;;25.70;99.90;;;;;;4936815;29;20111;-53
2022/09/20 04:04:39;;;;;;;5.22;2.78;;;25.70;99.90;;;;;;4935856;29;20031;-53
2022/09/20 04:07:39;;;;;;;9.13;2.60;;;25.70;99.90;;;;;;4935532;29;20392;-53
2022/09/20 04:10:47;;;;;;;7.03;2.38;;;25.70;99.90;;;;;;4935835;29;20028;-53
2022/09/20 04:13:34;;;;;;;5.72;2.30;;;25.70;99.90;;;;;;4935635;29;20034;-53
2022/09/20 04:16:31;;;;;;;6.30;2.15;;;25.70;99.90;;;;;;4935712;29;20048;-53
2022/09/20 04:19:02;;;;;;;8.48;2.35;;;25.70;99.90;;;;;;4935850;29;20107;-53
2022/09/20 04:21:56;;;;;;;6.05;2.33;;;25.70;99.90;;;;;;4934461;29;20126;-53
2022/09/20 04:24:34;;;;;;;12.63;7.28;;;25.70;99.90;;;;;;4935375;29;20036;-53
2022/09/20 04:27:05;;;;;;;4.75;2.70;;;25.70;99.90;;;;;;4935651;29;20051;-53
2022/09/20 04:29:49;;;;;;;7.32;3.45;;;25.70;99.90;;;;;;4934901;29;20026;-54
2022/09/20 04:32:29;;;;;;;9.20;3.78;;;25.70;99.90;;;;;;4935446;29;20314;-54
2022/09/20 04:38:12;;;;;;;6.80;3.10;;;25.70;99.90;;;;;;4935565;29;20042;-53
2022/09/20 04:41:10;;;;;;;8.90;3.53;;;25.70;99.90;;;;;;4935083;29;20480;-53
2022/09/20 04:44:14;;;;;;;7.07;3.90;;;25.70;99.90;;;;;;4935016;29;20482;-54
2022/09/20 04:47:05;;;;;;;7.60;2.67;;;25.70;99.90;;;;;;4935056;29;20468;-53
2022/09/20 04:50:28;;;;;;;6.55;2.55;;;25.70;99.90;;;;;;4935232;29;20118;-53
2022/09/20 04:52:59;;;;;;;7.00;2.60;;;25.70;99.90;;;;;;4876303;29;20108;-53
2022/09/20 04:55:48;;;;;;;9.48;3.22;;;25.70;99.90;;;;;;4876263;29;20492;-53
2022/09/20 04:58:29;;;;;;;16.55;4.60;;;25.70;99.90;;;;;;4922444;29;20487;-53
2022/09/20 05:01:15;;;;;;;14.88;3.42;;;25.70;99.90;;;;;;4934806;29;20048;-52
2022/09/20 05:04:32;;;;;;;5.25;2.60;;;25.70;99.90;;;;;;4934912;29;20047;-52
2022/09/20 05:07:02;;;;;;;11.80;3.10;;;25.70;99.90;;;;;;4902471;29;20091;-52
2022/09/20 05:09:39;;;;;;;11.60;3.13;;;25.70;99.90;;;;;;4934826;29;20087;-52
2022/09/20 05:12:47;;;;;;;7.80;3.00;;;25.70;99.90;;;;;;4934648;29;20028;-52
2022/09/20 05:15:38;;;;;;;14.18;2.83;;;25.70;99.90;;;;;;4907071;29;20035;-52
2022/09/20 05:18:08;;;;;;;12.00;3.10;;;25.70;99.90;;;;;;4934908;29;20023;-53
2022/09/20 05:21:05;;;;;;;8.48;2.70;;;25.70;99.90;;;;;;4934632;29;20035;-52
2022/09/20 05:23:46;;;;;;;25.17;4.40;;;25.70;99.90;;;;;;4934903;29;20036;-52
2022/09/20 05:26:43;;;;;;;12.48;3.53;;;25.70;99.90;;;;;;4934522;29;20061;-52
2022/09/20 05:29:35;;;;;;;5.95;2.83;;;25.70;99.90;;;;;;4933735;29;20043;-52
2022/09/20 05:32:34;;;;;;;15.27;3.20;;;25.70;99.90;;;;;;4934550;29;20049;-52
2022/09/20 05:35:14;;;;;;;11.23;3.25;;;25.70;99.90;;;;;;4934517;29;20028;-52
2022/09/20 05:37:49;;;;;;;11.13;3.05;;;25.70;99.90;;;;;;4934279;29;20023;-52
2022/09/20 05:40:48;;;;;;;11.82;3.85;;;25.70;99.90;;;;;;4934129;29;20035;-52
2022/09/20 05:43:29;;;;;;;16.05;3.42;;;25.70;99.90;;;;;;4933861;29;20067;-52
2022/09/20 05:46:25;;;;;;;13.68;3.53;;;25.70;99.90;;;;;;4934111;29;20102;-52
2022/09/20 05:48:56;;;;;;;14.60;2.97;;;25.70;99.90;;;;;;4932895;29;20126;-53
2022/09/20 05:51:45;;;;;;;18.35;3.25;;;25.70;99.90;;;;;;4934216;29;20103;-52
2022/09/20 05:54:28;;;;;;;13.40;3.40;;;25.70;99.90;;;;;;4933985;29;20059;-52
2022/09/20 05:57:24;;;;;;;11.35;3.10;;;25.60;99.90;;;;;;4934084;29;20055;-52
2022/09/20 06:00:12;;;;;;;12.95;3.10;;;25.70;99.90;;;;;;4933837;29;20036;-53
2022/09/20 06:02:58;;;;;;;5.35;2.72;;;25.60;99.90;;;;;;4933856;29;20040;-53
2022/09/20 06:05:42;;;;;;;7.70;2.28;;;25.70;99.90;;;;;;4933920;29;20080;-53
2022/09/20 06:08:20;;;;;;;11.55;3.17;;;25.60;99.90;;;;;;4933819;29;20484;-53
2022/09/20 06:10:59;;;;;;;7.13;2.72;;;25.60;99.90;;;;;;4933934;29;20134;-53
2022/09/20 06:13:52;;;;;;;8.90;3.10;;;25.60;99.90;;;;;;4933857;29;20054;-53
2022/09/20 06:16:32;;;;;;;10.10;3.47;;;25.60;99.90;;;;;;4933825;29;20028;-53
2022/09/20 06:19:05;;;;;;;9.30;2.95;;;25.60;99.90;;;;;;4933803;29;20070;-53
2022/09/20 06:21:48;;;;;;;15.27;3.58;;;25.60;99.90;;;;;;4933706;29;20471;-53
2022/09/20 06:24:21;;;;;;;10.63;3.03;;;25.70;99.90;;;;;;4933777;29;20044;-53
2022/09/20 06:26:50;;;;;;;14.27;3.70;;;25.70;99.90;;;;;;4933872;29;20024;-53
2022/09/20 06:29:23;;;;;;;16.55;4.55;;;25.70;99.90;;;;;;4933648;29;20472;-53
2022/09/20 06:31:48;;;;;;;18.13;4.70;;;25.70;99.90;;;;;;4933555;29;20020;-53
2022/09/20 06:34:14;;;;;;;20.63;4.95;;;25.70;99.90;;;;;;4933624;29;20071;-53
2022/09/20 06:42:43;;;;;;;20.75;5.78;;;25.70;99.90;;;;;;4933794;29;20142;-53
2022/09/20 06:45:09;;;;;;;22.27;6.47;;;25.70;99.90;;;;;;4933737;29;20361;-53
2022/09/20 06:47:35;;;;;;;26.83;5.80;;;25.70;99.90;;;;;;4933510;29;20055;-53
2022/09/20 06:50:01;;;;;;;14.55;4.72;;;25.70;99.90;;;;;;4933426;29;20054;-53
2022/09/20 06:52:27;;;;;;;19.48;4.68;;;25.70;99.90;;;;;;4933813;29;20071;-52
2022/09/20 06:54:54;;;;;;;12.23;3.25;;;25.70;99.90;;;;;;4937143;29;20032;-53
2022/09/20 06:57:29;;;;;;;16.67;4.13;;;25.70;99.90;;;;;;4936997;29;20063;-53
2022/09/20 06:59:55;;;;;;;19.23;4.30;;;25.80;99.90;;;;;;4936630;29;20059;-52
2022/09/20 07:02:20;;;;;;;15.50;4.68;;;25.70;99.90;;;;;;4936755;29;20040;-53
2022/09/20 07:04:46;;;;;;;14.65;3.83;;;25.80;99.90;;;;;;4936880;29;20030;-52
2022/09/20 07:07:18;;;;;;;15.30;4.90;;;25.80;99.90;;;;;;4935537;29;20039;-52
2022/09/20 07:09:44;;;;;;;16.55;3.85;;;25.80;99.90;;;;;;4936529;29;20512;-53
2022/09/20 07:12:10;;;;;;;16.40;4.18;;;25.80;99.90;;;;;;4936868;29;20028;-54
2022/09/20 07:14:37;;;;;;;12.20;3.60;;;25.80;99.90;;;;;;4936792;29;20431;-54
2022/09/20 07:17:03;;;;;;;18.95;2.97;;;25.80;99.90;;;;;;4936634;29;20254;-53
2022/09/20 07:19:28;;;;;;;11.05;3.13;;;25.90;99.90;;;;;;4936455;29;20411;-53
2022/09/20 07:21:54;;;;;;;10.75;3.00;;;25.90;99.90;;;;;;4936489;29;20051;-53
2022/09/20 07:24:20;;;;;;;14.38;3.75;;;25.90;99.90;;;;;;4936459;29;20031;-53
2022/09/20 07:27:03;;;;;;;12.57;3.33;;;25.90;99.90;;;;;;4936406;29;20035;-53
2022/09/20 07:29:30;;;;;;;9.20;2.67;;;25.90;99.90;;;;;;4936387;29;20028;-52
2022/09/20 07:31:56;;;;;;;12.55;3.75;;;25.90;99.90;;;;;;4936259;29;20102;-52
2022/09/20 07:34:22;;;;;;;13.77;3.47;;;25.90;99.90;;;;;;4936265;29;20464;-53
2022/09/20 07:36:50;;;;;;;9.48;3.08;;;26.00;99.90;;;;;;4936233;29;20107;-53
2022/09/20 07:39:16;;;;;;;7.20;2.33;;;26.00;99.90;;;;;;4936229;29;20075;-53
2022/09/20 07:41:47;;;;;;;8.52;3.10;;;26.10;99.90;;;;;;4936242;29;20040;-53
2022/09/20 07:44:26;;;;;;;14.30;3.88;;;26.10;99.90;;;;;;4936046;29;20496;-53
2022/09/20 07:46:57;;;;;;;11.38;2.90;;;26.10;99.90;;;;;;4936060;29;20039;-53
2022/09/20 07:49:24;;;;;;;12.45;2.75;;;26.20;99.90;;;;;;4935824;29;20024;-53
2022/09/20 07:51:51;;;;;;;12.55;2.85;;;26.20;99.90;;;;;;4935813;29;20083;-53
2022/09/20 07:54:17;;;;;;;11.43;3.55;;;26.30;99.90;;;;;;4935912;29;20024;-54
2022/09/20 07:56:43;;;;;;;12.52;3.60;;;26.20;99.90;;;;;;4936049;29;20110;-53
2022/09/20 07:59:10;;;;;;;9.07;3.28;;;26.30;99.90;;;;;;4936003;29;20034;-54
2022/09/20 08:01:37;;;;;;;16.88;3.78;;;26.20;99.90;;;;;;4935676;29;20055;-53
2022/09/20 08:04:05;;;;;;;9.70;3.30;;;26.30;99.90;;;;;;4934908;29;20044;-55
2022/09/20 08:06:34;;;;;;;13.27;3.65;;;26.30;99.90;;;;;;4935994;29;20028;-54
2022/09/20 08:09:00;;;;;;;9.95;3.15;;;26.30;99.90;;;;;;4935767;29;20082;-53
2022/09/20 08:11:28;;;;;;;12.02;4.05;;;26.30;99.90;;;;;;4935677;29;20036;-54
2022/09/20 08:13:55;;;;;;;11.00;3.95;;;26.30;99.90;;;;;;4935500;29;20066;-54
2022/09/20 08:16:21;;;;;;;;;;;26.40;99.90;;;;;;4935957;29;20016;-54
2022/09/20 08:18:56;;;;;;;12.13;2.78;;;26.40;99.90;;;;;;4935614;29;19990;-54
2022/09/20 08:21:23;;;;;;;8.50;2.72;;;26.40;99.90;;;;;;4935485;29;20030;-53
2022/09/20 08:23:50;;;;;;;10.65;3.38;;;26.40;99.90;;;;;;4935396;29;20491;-54
2022/09/20 08:26:21;;;;;;;13.68;3.83;;;26.50;99.90;;;;;;4935454;29;20083;-54
2022/09/20 08:28:54;;;;;;;18.52;3.15;;;26.50;99.90;;;;;;4935257;29;20027;-53
2022/09/20 08:31:23;;;;;;;11.45;2.90;;;26.50;99.90;;;;;;4935608;29;20026;-54
2022/09/20 08:33:49;;;;;;;8.02;2.67;;;26.50;99.90;;;;;;4935203;29;20031;-54
2022/09/20 08:36:25;;;;;;;10.38;3.47;;;26.60;99.90;;;;;;4935359;29;20024;-53
2022/09/20 08:38:52;;;;;;;13.10;2.63;;;26.60;99.90;;;;;;4935309;29;20028;-53
2022/09/20 08:41:24;;;;;;;9.70;3.65;;;26.60;99.90;;;;;;4935031;29;20028;-54
2022/09/20 08:44:23;;;;;;;11.52;3.05;;;26.60;99.90;;;;;;4934985;29;20039;-54
2022/09/20 08:47:00;;;;;;;9.30;3.13;;;26.70;99.90;;;;;;4934992;29;20039;-53
2022/09/20 08:49:27;;;;;;;10.63;3.20;;;26.70;99.90;;;;;;4934952;29;20067;-53
2022/09/20 08:51:56;;;;;;;10.35;3.17;;;26.70;99.90;;;;;;4935018;29;20494;-53
2022/09/20 08:54:26;;;;;;;11.85;2.88;;;26.80;99.90;;;;;;4934882;29;20024;-53
2022/09/20 08:56:52;;;;;;;11.05;2.92;;;26.80;99.90;;;;;;4934762;29;20492;-54
2022/09/20 08:59:22;;;;;;;12.38;3.00;;;26.90;99.90;;;;;;4934841;29;20522;-53
2022/09/20 09:01:50;;;;;;;11.18;2.63;;;26.90;99.90;;;;;;4934645;29;20079;-53
2022/09/20 09:04:22;;;;;;;9.65;2.50;;;26.90;99.90;;;;;;4934713;29;20036;-53
2022/09/20 09:06:51;;;;;;;11.15;2.90;;;26.90;99.90;;;;;;4934818;29;20046;-53
2022/09/20 09:09:20;;;;;;;7.05;2.40;;;27.00;99.90;;;;;;4934676;29;20094;-52
2022/09/20 09:11:48;;;;;;;13.38;2.95;;;27.00;99.90;;;;;;4933496;29;20052;-52
2022/09/20 09:14:51;;;;;;;13.15;3.30;;;27.00;99.90;;;;;;4934624;29;20421;-52
2022/09/20 09:17:19;;;;;;;10.40;2.90;;;27.00;99.90;;;;;;4934408;29;20094;-53
2022/09/20 09:20:16;;;;;;;8.00;2.38;;;27.10;99.90;;;;;;4934619;29;20059;-54
2022/09/20 09:22:46;;;;;;;6.68;2.53;;;27.10;99.90;;;;;;4933471;29;20122;-54
2022/09/20 09:25:21;;;;;;;11.10;3.40;;;27.20;99.90;;;;;;4934172;29;20076;-53
2022/09/20 09:27:56;;;;;;;10.70;2.60;;;27.20;99.90;;;;;;4934370;29;20615;-53
2022/09/20 09:30:32;;;;;;;6.40;2.13;;;27.20;99.90;;;;;;4934246;29;20149;-54
2022/09/20 09:33:28;;;;;;;10.75;2.90;;;27.20;99.90;;;;;;4934214;29;20024;-54
2022/09/20 09:36:34;;;;;;;7.38;2.50;;;27.20;99.90;;;;;;4928393;29;20448;-55
2022/09/20 09:39:22;;;;;;;8.10;2.40;;;27.30;99.90;;;;;;4931058;29;20032;-53
2022/09/20 09:41:47;;;;;;;10.93;2.95;;;27.30;99.90;;;;;;4934168;29;20028;-54
2022/09/20 09:44:20;;;;;;;6.70;2.83;;;27.30;99.90;;;;;;4934041;29;20040;-53
2022/09/20 09:46:49;;;;;;;8.00;3.00;;;27.40;99.90;;;;;;4934258;29;20051;-53
2022/09/20 09:49:22;;;;;;;8.13;3.20;;;27.40;99.90;;;;;;4933861;29;20059;-54
2022/09/20 09:52:15;;;;;;;14.88;2.83;;;27.40;99.90;;;;;;4934000;29;20063;-53
2022/09/20 09:54:45;;;;;;;10.80;3.40;;;27.40;99.90;;;;;;4926722;29;20032;-53
2022/09/20 09:57:45;;;;;;;11.32;2.72;;;27.50;99.90;;;;;;4933877;29;20051;-53
2022/09/20 10:00:16;;;;;;;13.07;3.63;;;27.50;99.90;;;;;;4933802;29;20044;-54
2022/09/20 10:03:36;;;;;;;10.52;3.47;;;27.50;99.90;;;;;;4933806;29;20412;-54
2022/09/20 10:06:07;;;;;;;10.25;3.70;;;27.50;99.90;;;;;;4874992;29;20041;-54
2022/09/20 10:08:36;;;;;;;8.45;3.33;;;27.60;99.90;;;;;;4923494;29;20391;-54
2022/09/20 10:11:20;;;;;;;15.10;4.10;;;27.60;99.90;;;;;;4933776;29;20110;-54
2022/09/20 10:14:10;;;;;;;9.73;4.30;;;27.60;99.90;;;;;;4933777;29;20028;-53
2022/09/20 10:16:54;;;;;;;8.63;3.67;;;27.70;99.90;;;;;;4933585;29;20084;-54
2022/09/20 10:19:42;;;;;;;11.45;3.40;;;27.70;99.90;;;;;;4933902;29;20032;-53
2022/09/20 10:22:20;;;;;;;13.27;3.60;;;27.80;99.90;;;;;;4933669;29;20024;-54
2022/09/20 10:25:13;;;;;;;12.43;3.20;;;27.80;99.90;;;;;;4933659;29;20043;-54
2022/09/20 10:27:50;;;;;;;30.23;4.80;;;27.90;99.90;;;;;;4934416;29;20028;-54
2022/09/20 10:30:24;;;;;;;11.07;3.20;;;27.90;99.90;;;;;;4937562;29;20423;-54
2022/09/20 10:33:11;;;;;;;13.20;3.78;;;27.90;99.90;;;;;;4937647;29;20024;-53
2022/09/20 10:35:58;;;;;;;;;;;28.00;99.90;;;;;;4937743;29;20019;-54
2022/09/20 10:38:51;;;;;;;10.25;3.67;;;28.10;99.90;;;;;;4937590;29;19954;-53
2022/09/20 10:44:38;;;;;;;22.52;3.97;;;28.20;99.90;;;;;;4937268;29;20086;-54
2022/09/20 10:47:15;;;;;;;11.30;3.70;;;28.30;99.90;;;;;;4937084;29;20028;-54
2022/09/20 10:49:59;;;;;;;14.43;3.92;;;28.30;99.90;;;;;;4935647;29;20472;-54
2022/09/20 10:52:25;;;;;;;10.00;3.83;;;28.40;99.90;;;;;;4937198;29;20512;-54
2022/09/20 10:55:03;;;;;;;5.78;2.90;;;28.50;99.90;;;;;;4937180;29;20058;-53
2022/09/20 10:58:05;;;;;;;8.07;3.13;;;28.50;99.90;;;;;;4936911;29;20024;-54
2022/09/20 11:00:41;;;;;;;6.43;2.97;;;28.50;99.90;;;;;;4936618;29;20048;-54
2022/09/20 11:03:31;;;;;;;7.13;2.72;;;28.50;99.90;;;;;;4936713;29;20408;-54
2022/09/20 11:06:06;;;;;;;6.90;3.10;;;28.50;99.90;;;;;;4936825;29;20038;-54
2022/09/20 11:08:36;;;;;;;8.73;2.88;;;28.60;99.90;;;;;;4936682;29;20361;-54
2022/09/20 11:11:24;;;;;;;7.28;3.42;;;28.60;99.90;;;;;;4936710;29;20032;-54
2022/09/20 11:14:12;;;;;;;8.30;2.85;;;28.60;99.90;;;;;;4936589;29;20027;-54
2022/09/20 11:16:48;;;;;;;8.38;2.45;;;28.70;99.90;;;;;;4936551;29;20029;-54
2022/09/20 11:19:32;;;;;;;10.77;2.83;;;28.80;99.90;;;;;;4936713;29;20413;-55
2022/09/20 11:22:13;;;;;;;8.35;2.30;;;28.80;99.90;;;;;;4936485;29;20262;-54
2022/09/20 11:25:09;;;;;;;3.67;2.17;;;28.90;99.90;;;;;;4936449;29;20059;-53
2022/09/20 11:27:45;;;;;;;11.43;3.15;;;29.00;99.90;;;;;;4931195;29;20035;-54
2022/09/20 11:30:17;;;;;;;8.13;2.45;;;29.00;99.90;;;;;;4936321;29;20079;-53
2022/09/20 11:32:52;;;;;;;16.85;2.88;;;29.00;99.90;;;;;;4936440;29;20050;-54
2022/09/20 11:35:29;;;;;;;4.70;2.10;;;29.00;99.90;;;;;;4936312;29;20600;-54
2022/09/20 11:38:10;;;;;;;6.93;2.55;;;29.00;99.90;;;;;;4936334;29;20103;-54
2022/09/20 11:40:48;;;;;;;9.27;2.83;;;29.00;99.90;;;;;;4936026;29;20027;-55
2022/09/20 11:43:17;;;;;;;9.85;2.10;;;29.00;99.90;;;;;;4936045;29;20119;-54
2022/09/20 11:45:46;;;;;;;8.52;2.40;;;29.00;99.90;;;;;;4936446;29;20024;-54
2022/09/20 11:48:28;;;;;;;7.55;2.05;;;29.10;99.90;;;;;;4936176;29;20393;-55
2022/09/20 11:51:21;;;;;;;10.27;2.80;;;29.10;99.90;;;;;;4936164;29;20046;-54
2022/09/20 11:54:13;;;;;;;7.63;2.33;;;29.20;99.90;;;;;;4935725;29;20111;-54
2022/09/20 11:56:39;;;;;;;7.30;1.92;;;29.20;99.90;;;;;;4935701;29;20044;-54
2022/09/20 11:59:20;;;;;;;10.93;1.80;;;29.30;99.90;;;;;;4935814;29;20036;-54
2022/09/20 12:01:45;;;;;;;7.70;2.35;;;29.30;99.90;;;;;;4935654;29;20051;-54
2022/09/20 12:04:17;;;;;;;8.40;2.28;;;29.40;99.90;;;;;;4935897;29;20039;-54
2022/09/20 12:06:44;;;;;;;7.80;2.08;;;29.40;99.90;;;;;;4935590;29;20163;-54
2022/09/20 12:09:36;;;;;;;11.57;2.60;;;29.40;99.90;;;;;;4935674;29;20035;-54
2022/09/20 12:12:22;;;;;;;7.97;2.60;;;29.40;99.90;;;;;;4935501;29;20560;-54
2022/09/20 12:15:00;;;;;;;9.57;2.10;;;29.50;99.90;;;;;;4935534;29;20039;-54
2022/09/20 12:17:45;;;;;;;7.50;2.03;;;29.50;99.90;;;;;;4935774;29;20027;-54
2022/09/20 12:20:37;;;;;;;5.80;2.72;;;29.60;99.90;;;;;;4935433;29;20103;-54
2022/09/20 12:23:37;;;;;;;8.38;2.78;;;29.70;99.90;;;;;;4935355;29;20032;-54
2022/09/20 12:26:06;;;;;;;12.27;3.95;;;29.70;99.90;;;;;;4935257;29;20031;-54
2022/09/20 12:28:51;;;;;;;8.93;2.63;;;29.70;99.90;;;;;;4935177;29;20055;-54
2022/09/20 12:31:30;;;;;;;5.38;2.13;;;29.80;99.90;;;;;;4935114;29;20027;-54
2022/09/20 12:34:17;;;;;;;12.07;2.38;;;29.80;99.90;;;;;;4935104;29;20031;-54
2022/09/20 12:36:54;;;;;;;6.50;1.70;;;29.70;99.90;;;;;;4925016;29;20392;-49
2022/09/20 12:39:26;;;;;;;7.45;2.00;;;29.70;99.90;;;;;;4923985;29;20040;-49
2022/09/20 12:42:06;;;;;;;8.77;2.17;;;29.70;99.90;;;;;;4926592;29;20032;-53
2022/09/20 12:45:01;;;;;;;5.95;1.95;;;29.60;99.90;;;;;;4935272;29;20071;-53
2022/09/20 12:47:31;;;;;;;11.27;2.33;;;29.60;99.90;;;;;;4933424;29;20107;-52
2022/09/20 12:53:00;;;;;;;14.50;2.00;;;29.60;99.90;;;;;;4933272;29;20119;-50
2022/09/20 12:55:32;;;;;;;8.55;2.10;;;29.60;99.90;;;;;;4933404;29;20027;-50
2022/09/20 12:58:13;;;;;;;11.05;2.22;;;29.60;99.90;;;;;;4933446;29;20115;-52
2022/09/20 13:00:59;;;;;;;10.23;2.10;;;29.60;99.90;;;;;;4933615;29;20044;-50
2022/09/20 13:03:37;;;;;;;7.90;1.90;;;29.50;99.90;;;;;;4933321;29;20128;-55
2022/09/20 13:06:06;;;;;;;9.80;2.40;;;29.50;99.90;;;;;;4923754;29;20114;-52
2022/09/20 13:08:35;;;;;;;12.63;3.67;;;29.30;99.90;;;;;;4926118;29;20034;-53
2022/09/20 13:11:13;;;;;;;14.98;3.78;;;29.30;99.90;;;;;;4923816;29;20028;-53
2022/09/20 13:13:51;;;;;;;10.40;3.22;;;29.30;99.90;;;;;;4926097;29;20031;-54
2022/09/20 13:16:35;;;;;;;7.30;2.17;;;29.30;99.90;;;;;;4923197;29;20036;-52
2022/09/20 13:19:21;;;;;;;8.63;2.10;;;29.40;99.90;;;;;;4922803;29;20107;-52
2022/09/20 13:21:53;;;;;;;15.13;3.10;;;29.40;99.90;;;;;;4925563;29;20020;-51
2022/09/20 13:24:19;;;;;;;9.15;2.22;;;29.40;99.90;;;;;;4925963;29;20034;-50
2022/09/20 13:26:48;;;;;;;7.07;2.03;;;29.50;99.90;;;;;;4926162;29;20510;-51
2022/09/20 13:29:38;;;;;;;10.48;2.30;;;29.50;99.90;;;;;;4927542;29;20110;-49
2022/09/20 13:32:25;;;;;;;11.07;2.35;;;29.60;99.90;;;;;;4923497;29;20024;-50
2022/09/20 13:35:08;;;;;;;;;;;29.50;99.90;;;;;;4926586;29;20515;-53
2022/09/20 13:37:37;;;;;;;6.40;1.98;;;29.40;99.90;;;;;;4914626;29;19911;-53
2022/09/20 13:40:05;;;;;;;12.65;2.00;;;29.30;99.90;;;;;;4929687;29;20029;-52
2022/09/20 13:42:34;;;;;;;9.05;2.30;;;29.30;99.90;;;;;;4930868;29;20070;-53
2022/09/20 13:45:03;;;;;;;12.52;3.20;;;29.30;99.90;;;;;;4929057;29;20110;-53
2022/09/20 13:47:30;;;;;;;21.17;3.38;;;29.20;99.90;;;;;;4925497;29;20027;-53
2022/09/20 13:50:19;;;;;;;15.52;2.42;;;29.20;99.90;;;;;;4928143;29;20245;-54
2022/09/20 13:52:52;;;;;;;8.70;2.20;;;29.10;99.90;;;;;;4917144;29;20456;-55
2022/09/20 13:55:50;;;;;;;10.52;2.42;;;29.00;99.90;;;;;;4917446;29;20013;-49
2022/09/20 13:58:33;;;;;;;9.38;3.03;;;28.90;99.90;;;;;;4919339;29;20040;-53